sensor_id;sensor_type;location;lat;lon;timestamp;temperature;humidity
21805;DHT22;11064;47.102;15.452;2023-06-05T04:03:06;14.50;99.90
21805;DHT22;11064;47.102;15.452;2023-06-05T04:05:34;14.50;99.90
21805;DHT22;11064;47.102;15.452;2023-06-05T04:08:01;14.50;99.90
21805;DHT22;11064;47.102;15.452;2023-06-05T04:10:28;14.60;99.90
21805;DHT22;11064;47.102;15.452;2023-06-05T04:12:54;14.70;99.90
21805;DHT22;11064;47.102;15.452;2023-06-05T04:15:22;14.80;99.90
21805;DHT22;11064;47.102;15.452;2023-06-05T04:17:48;14.90;99.90
21805;DHT22;11064;47.102;15.452;2023-06-05T04:20:15;14.90;99.90
21805;DHT22;11064;47.102;15.452;2023-06-05T04:22:42;15.00;99.90
21805;DHT22;11064;47.102;15.452;2023-06-05T04:25:09;15.00;99.90
21805;DHT22;11064;47.102;15.452;2023-06-05T04:27:42;15.00;99.90
21805;DHT22;11064;47.102;15.452;2023-06-05T04:30:11;15.10;99.90
21805;DHT22;11064;47.102;15.452;2023-06-05T04:32:38;15.10;99.90
21805;DHT22;11064;47.102;15.452;2023-06-05T04:35:09;15.10;99.90
21805;DHT22;11064;47.102;15.452;2023-06-05T04:37:36;15.10;99.90
21805;DHT22;11064;47.102;15.452;2023-06-05T04:40:03;15.10;99.90
21805;DHT22;11064;47.102;15.452;2023-06-05T04:42:34;15.10;99.90
21805;DHT22;11064;47.102;15.452;2023-06-05T04:45:04;15.20;99.90
21805;DHT22;11064;47.102;15.452;2023-06-05T04:47:31;15.30;99.90
21805;DHT22;11064;47.102;15.452;2023-06-05T04:50:02;15.30;99.90
21805;DHT22;11064;47.102;15.452;2023-06-05T04:52:32;15.40;99.90
21805;DHT22;11064;47.102;15.452;2023-06-05T04:54:59;15.40;99.90
21805;DHT22;11064;47.102;15.452;2023-06-05T04:57:28;15.50;99.90
21805;DHT22;11064;47.102;15.452;2023-06-05T04:59:55;15.80;99.90
21805;DHT22;11064;47.102;15.452;2023-06-05T05:02:22;15.90;99.90
21805;DHT22;11064;47.102;15.452;2023-06-05T05:04:49;16.00;99.90
21805;DHT22;11064;47.102;15.452;2023-06-05T05:07:15;16.00;99.90
21805;DHT22;11064;47.102;15.452;2023-06-05T05:09:43;16.10;99.90
21805;DHT22;11064;47.102;15.452;2023-06-05T05:12:09;16.20;99.90
21805;DHT22;11064;47.102;15.452;2023-06-05T05:14:36;16.40;99.90
21805;DHT22;11064;47.102;15.452;2023-06-05T05:17:02;16.50;99.90
21805;DHT22;11064;47.102;15.452;2023-06-05T05:19:29;16.50;99.90
21805;DHT22;11064;47.102;15.452;2023-06-05T05:21:55;16.60;99.90
21805;DHT22;11064;47.102;15.452;2023-06-05T05:24:21;16.50;99.90
21805;DHT22;11064;47.102;15.452;2023-06-05T05:26:48;16.50;99.90
21805;DHT22;11064;47.102;15.452;2023-06-05T05:29:14;16.40;99.90
21805;DHT22;11064;47.102;15.452;2023-06-05T05:31:40;16.10;99.90
21805;DHT22;11064;47.102;15.452;2023-06-05T05:34:06;16.00;99.90
21805;DHT22;11064;47.102;15.452;2023-06-05T05:36:32;16.00;99.90
21805;DHT22;11064;47.102;15.452;2023-06-05T05:39:02;16.10;99.90
21805;DHT22;11064;47.102;15.452;2023-06-05T05:41:28;16.00;99.90
21805;DHT22;11064;47.102;15.452;2023-06-05T05:43:54;16.00;99.90
21805;DHT22;11064;47.102;15.452;2023-06-05T05:46:20;15.90;99.90
21805;DHT22;11064;47.102;15.452;2023-06-05T05:48:46;16.10;99.90
21805;DHT22;11064;47.102;15.452;2023-06-05T05:51:12;16.30;99.90
21805;DHT22;11064;47.102;15.452;2023-06-05T05:53:38;16.30;99.90
21805;DHT22;11064;47.102;15.452;2023-06-05T05:56:03;16.30;99.90
21805;DHT22;11064;47.102;15.452;2023-06-05T05:58:30;16.40;99.90
21805;DHT22;11064;47.102;15.452;2023-06-05T06:00:57;16.50;99.90
21805;DHT22;11064;47.102;15.452;2023-06-05T06:03:25;16.60;99.90
21805;DHT22;11064;47.102;15.452;2023-06-05T06:05:52;16.40;99.90
21805;DHT22;11064;47.102;15.452;2023-06-05T06:08:18;16.30;99.90
21805;DHT22;11064;47.102;15.452;2023-06-05T06:10:44;16.20;99.90
21805;DHT22;11064;47.102;15.452;2023-06-05T06:13:11;16.10;99.90
21805;DHT22;11064;47.102;15.452;2023-06-05T06:15:37;16.10;99.90
21805;DHT22;11064;47.102;15.452;2023-06-05T06:18:05;16.40;99.90
21805;DHT22;11064;47.102;15.452;2023-06-05T06:20:32;16.40;99.90
21805;DHT22;11064;47.102;15.452;2023-06-05T06:22:59;16.60;99.90
21805;DHT22;11064;47.102;15.452;2023-06-05T06:25:25;16.80;99.90
21805;DHT22;11064;47.102;15.452;2023-06-05T06:27:59;16.50;99.90
21805;DHT22;11064;47.102;15.452;2023-06-05T06:30:25;16.40;99.90
21805;DHT22;11064;47.102;15.452;2023-06-05T06:32:53;16.50;99.90
21805;DHT22;11064;47.102;15.452;2023-06-05T06:35:24;16.50;99.90
21805;DHT22;11064;47.102;15.452;2023-06-05T06:37:53;16.70;99.90
21805;DHT22;11064;47.102;15.452;2023-06-05T06:40:20;16.90;99.90
21805;DHT22;11064;47.102;15.452;2023-06-05T06:42:46;17.00;99.90
21805;DHT22;11064;47.102;15.452;2023-06-05T06:45:12;17.10;99.90
21805;DHT22;11064;47.102;15.452;2023-06-05T06:47:37;17.20;99.90
21805;DHT22;11064;47.102;15.452;2023-06-05T06:50:04;17.20;99.90
21805;DHT22;11064;47.102;15.452;2023-06-05T06:52:30;17.10;99.90
21805;DHT22;11064;47.102;15.452;2023-06-05T06:54:56;17.10;99.90
21805;DHT22;11064;47.102;15.452;2023-06-05T06:57:22;17.50;99.90
21805;DHT22;11064;47.102;15.452;2023-06-05T06:59:48;17.70;99.90
21805;DHT22;11064;47.102;15.452;2023-06-05T07:02:22;17.80;99.90
21805;DHT22;11064;47.102;15.452;2023-06-05T07:04:48;18.10;99.90
21805;DHT22;11064;47.102;15.452;2023-06-05T07:07:16;18.20;99.90
21805;DHT22;11064;47.102;15.452;2023-06-05T07:09:43;18.40;99.90
21805;DHT22;11064;47.102;15.452;2023-06-05T07:12:13;18.40;99.90
21805;DHT22;11064;47.102;15.452;2023-06-05T07:14:40;18.30;99.90
21805;DHT22;11064;47.102;15.452;2023-06-05T07:17:06;18.10;99.90
21805;DHT22;11064;47.102;15.452;2023-06-05T07:19:34;17.80;99.90
21805;DHT22;11064;47.102;15.452;2023-06-05T07:22:02;17.70;99.90
21805;DHT22;11064;47.102;15.452;2023-06-05T07:24:32;17.30;99.90
21805;DHT22;11064;47.102;15.452;2023-06-05T07:27:01;17.10;99.90
21805;DHT22;11064;47.102;15.452;2023-06-05T07:29:27;16.60;99.90
21805;DHT22;11064;47.102;15.452;2023-06-05T07:31:55;16.30;99.90
21805;DHT22;11064;47.102;15.452;2023-06-05T07:34:22;16.20;99.90
21805;DHT22;11064;47.102;15.452;2023-06-05T07:36:49;16.10;99.90
21805;DHT22;11064;47.102;15.452;2023-06-05T07:39:18;15.90;99.90
21805;DHT22;11064;47.102;15.452;2023-06-05T07:41:44;15.60;99.90
21805;DHT22;11064;47.102;15.452;2023-06-05T07:44:12;15.70;99.90
21805;DHT22;11064;47.102;15.452;2023-06-05T07:46:48;15.50;99.90
21805;DHT22;11064;47.102;15.452;2023-06-05T07:49:14;15.50;99.90
21805;DHT22;11064;47.102;15.452;2023-06-05T07:51:44;15.50;99.90
21805;DHT22;11064;47.102;15.452;2023-06-05T07:54:13;15.50;99.90
21805;DHT22;11064;47.102;15.452;2023-06-05T07:56:39;15.60;99.90
21805;DHT22;11064;47.102;15.452;2023-06-05T07:59:06;15.60;99.90
21805;DHT22;11064;47.102;15.452;2023-06-05T08:01:33;15.70;99.90
21805;DHT22;11064;47.102;15.452;2023-06-05T08:04:02;15.60;99.90
21805;DHT22;11064;47.102;15.452;2023-06-05T08:06:29;15.70;99.90
21805;DHT22;11064;47.102;15.452;2023-06-05T08:08:56;15.70;99.90
21805;DHT22;11064;47.102;15.452;2023-06-05T08:11:22;15.70;99.90
21805;DHT22;11064;47.102;15.452;2023-06-05T08:13:47;15.60;99.90
21805;DHT22;11064;47.102;15.452;2023-06-05T08:16:13;15.80;99.90
21805;DHT22;11064;47.102;15.452;2023-06-05T08:18:41;15.80;99.90
21805;DHT22;11064;47.102;15.452;2023-06-05T08:21:07;15.70;99.90
21805;DHT22;11064;47.102;15.452;2023-06-05T08:23:33;15.40;99.90
21805;DHT22;11064;47.102;15.452;2023-06-05T08:25:59;15.10;99.90
21805;DHT22;11064;47.102;15.452;2023-06-05T08:28:25;14.90;99.90
21805;DHT22;11064;47.102;15.452;2023-06-05T08:30:51;14.70;99.90
21805;DHT22;11064;47.102;15.452;2023-06-05T08:33:20;14.40;99.90
21805;DHT22;11064;47.102;15.452;2023-06-05T08:35:45;14.40;99.90
21805;DHT22;11064;47.102;15.452;2023-06-05T08:38:11;14.30;99.90
21805;DHT22;11064;47.102;15.452;2023-06-05T08:40:39;14.30;99.90
21805;DHT22;11064;47.102;15.452;2023-06-05T08:43:05;14.30;99.90
21805;DHT22;11064;47.102;15.452;2023-06-05T08:45:31;14.20;99.90
21805;DHT22;11064;47.102;15.452;2023-06-05T08:48:00;14.20;99.90
21805;DHT22;11064;47.102;15.452;2023-06-05T08:50:30;14.20;99.90
21805;DHT22;11064;47.102;15.452;2023-06-05T08:53:00;14.40;99.90
21805;DHT22;11064;47.102;15.452;2023-06-05T08:55:27;14.50;99.90
21805;DHT22;11064;47.102;15.452;2023-06-05T08:57:53;14.50;99.90
21805;DHT22;11064;47.102;15.452;2023-06-05T09:00:21;14.70;99.90
21805;DHT22;11064;47.102;15.452;2023-06-05T09:02:47;14.80;99.90
21805;DHT22;11064;47.102;15.452;2023-06-05T09:05:17;14.80;99.90
21805;DHT22;11064;47.102;15.452;2023-06-05T09:07:43;14.90;99.90
21805;DHT22;11064;47.102;15.452;2023-06-05T09:10:26;14.90;99.90
21805;DHT22;11064;47.102;15.452;2023-06-05T09:12:57;15.10;99.90
21805;DHT22;11064;47.102;15.452;2023-06-05T09:15:30;15.10;99.90
21805;DHT22;11064;47.102;15.452;2023-06-05T09:18:22;15.20;99.90
21805;DHT22;11064;47.102;15.452;2023-06-05T09:20:48;15.40;99.90
21805;DHT22;11064;47.102;15.452;2023-06-05T09:23:40;15.60;99.90
21805;DHT22;11064;47.102;15.452;2023-06-05T09:26:07;15.80;99.90
21805;DHT22;11064;47.102;15.452;2023-06-05T09:28:35;15.80;99.90
21805;DHT22;11064;47.102;15.452;2023-06-05T09:31:02;16.10;99.90
21805;DHT22;11064;47.102;15.452;2023-06-05T09:33:30;16.00;99.90
21805;DHT22;11064;47.102;15.452;2023-06-05T09:36:11;16.20;99.90
21805;DHT22;11064;47.102;15.452;2023-06-05T09:38:39;16.10;99.90
21805;DHT22;11064;47.102;15.452;2023-06-05T09:41:10;16.20;99.90
21805;DHT22;11064;47.102;15.452;2023-06-05T09:43:37;16.40;99.90
21805;DHT22;11064;47.102;15.452;2023-06-05T09:46:21;16.80;99.90
21805;DHT22;11064;47.102;15.452;2023-06-05T09:48:52;16.90;99.90
21805;DHT22;11064;47.102;15.452;2023-06-05T09:51:22;17.10;99.90
21805;DHT22;11064;47.102;15.452;2023-06-05T09:53:50;17.30;99.90
21805;DHT22;11064;47.102;15.452;2023-06-05T09:56:18;17.10;99.90
21805;DHT22;11064;47.102;15.452;2023-06-05T09:58:49;17.00;99.90
21805;DHT22;11064;47.102;15.452;2023-06-05T10:01:19;17.10;99.90
21805;DHT22;11064;47.102;15.452;2023-06-05T10:03:56;17.20;99.90
21805;DHT22;11064;47.102;15.452;2023-06-05T10:06:26;17.40;99.90
21805;DHT22;11064;47.102;15.452;2023-06-05T10:08:54;17.40;99.90
21805;DHT22;11064;47.102;15.452;2023-06-05T10:11:24;17.60;99.90
21805;DHT22;11064;47.102;15.452;2023-06-05T10:13:52;17.20;99.90
21805;DHT22;11064;47.102;15.452;2023-06-05T10:16:19;17.30;99.90
21805;DHT22;11064;47.102;15.452;2023-06-05T10:18:49;17.30;99.90
21805;DHT22;11064;47.102;15.452;2023-06-05T10:21:16;17.30;99.90
21805;DHT22;11064;47.102;15.452;2023-06-05T10:23:58;17.20;99.90
21805;DHT22;11064;47.102;15.452;2023-06-05T10:26:48;17.30;99.90
21805;DHT22;11064;47.102;15.452;2023-06-05T10:32:05;17.70;99.90
21805;DHT22;11064;47.102;15.452;2023-06-05T10:40:33;17.00;99.90
21805;DHT22;11064;47.102;15.452;2023-06-05T10:45:50;17.40;99.90
21805;DHT22;11064;47.102;15.452;2023-06-05T10:48:16;17.60;99.90
21805;DHT22;11064;47.102;15.452;2023-06-05T10:50:43;17.60;99.90
21805;DHT22;11064;47.102;15.452;2023-06-05T10:53:46;17.70;99.90
21805;DHT22;11064;47.102;15.452;2023-06-05T10:57:05;18.00;99.90
21805;DHT22;11064;47.102;15.452;2023-06-05T10:59:39;17.70;99.90
21805;DHT22;11064;47.102;15.452;2023-06-05T11:07:17;16.60;99.90
21805;DHT22;11064;47.102;15.452;2023-06-05T11:18:32;16.20;99.90
21805;DHT22;11064;47.102;15.452;2023-06-05T11:20:58;15.80;99.90
21805;DHT22;11064;47.102;15.452;2023-06-05T11:23:25;15.40;99.90
21805;DHT22;11064;47.102;15.452;2023-06-05T11:25:55;15.40;99.90
21805;DHT22;11064;47.102;15.452;2023-06-05T11:28:42;15.40;99.90
21805;DHT22;11064;47.102;15.452;2023-06-05T11:31:08;15.40;99.90
21805;DHT22;11064;47.102;15.452;2023-06-05T11:33:34;15.50;99.90
21805;DHT22;11064;47.102;15.452;2023-06-05T11:36:06;15.50;99.90
21805;DHT22;11064;47.102;15.452;2023-06-05T11:38:33;15.40;99.90
21805;DHT22;11064;47.102;15.452;2023-06-05T11:40:59;15.30;99.90
21805;DHT22;11064;47.102;15.452;2023-06-05T11:43:25;15.20;99.90
21805;DHT22;11064;47.102;15.452;2023-06-05T11:45:53;15.10;99.90
21805;DHT22;11064;47.102;15.452;2023-06-05T11:48:19;15.20;99.90
21805;DHT22;11064;47.102;15.452;2023-06-05T11:51:00;15.20;99.90
21805;DHT22;11064;47.102;15.452;2023-06-05T11:53:27;15.20;99.90
21805;DHT22;11064;47.102;15.452;2023-06-05T11:55:55;15.20;99.90
21805;DHT22;11064;47.102;15.452;2023-06-05T11:58:41;15.10;99.90
21805;DHT22;11064;47.102;15.452;2023-06-05T12:01:18;15.20;99.90
21805;DHT22;11064;47.102;15.452;2023-06-05T12:03:48;15.30;99.90
21805;DHT22;11064;47.102;15.452;2023-06-05T12:06:15;15.40;99.90
21805;DHT22;11064;47.102;15.452;2023-06-05T12:08:43;15.70;99.90
21805;DHT22;11064;47.102;15.452;2023-06-05T12:11:24;15.80;99.90
21805;DHT22;11064;47.102;15.452;2023-06-05T12:13:53;15.80;99.90
21805;DHT22;11064;47.102;15.452;2023-06-05T12:16:21;16.00;99.90
21805;DHT22;11064;47.102;15.452;2023-06-05T12:18:56;16.30;99.90
21805;DHT22;11064;47.102;15.452;2023-06-05T12:21:23;16.50;99.90
21805;DHT22;11064;47.102;15.452;2023-06-05T12:23:50;16.70;99.90
21805;DHT22;11064;47.102;15.452;2023-06-05T12:26:16;16.60;99.90
21805;DHT22;11064;47.102;15.452;2023-06-05T12:28:44;16.40;99.90
21805;DHT22;11064;47.102;15.452;2023-06-05T12:31:35;16.60;99.90
21805;DHT22;11064;47.102;15.452;2023-06-05T12:34:02;16.70;99.90
21805;DHT22;11064;47.102;15.452;2023-06-05T12:36:29;16.60;99.90
21805;DHT22;11064;47.102;15.452;2023-06-05T12:39:02;16.70;99.90
21805;DHT22;11064;47.102;15.452;2023-06-05T12:41:32;16.60;99.90
21805;DHT22;11064;47.102;15.452;2023-06-05T12:44:05;16.40;99.90
21805;DHT22;11064;47.102;15.452;2023-06-05T12:46:33;16.20;99.90
21805;DHT22;11064;47.102;15.452;2023-06-05T12:49:00;16.10;99.90
21805;DHT22;11064;47.102;15.452;2023-06-05T12:51:27;16.10;99.90
21805;DHT22;11064;47.102;15.452;2023-06-05T12:53:56;16.00;99.90
21805;DHT22;11064;47.102;15.452;2023-06-05T12:56:23;15.90;99.90
21805;DHT22;11064;47.102;15.452;2023-06-05T12:58:57;15.90;99.90
21805;DHT22;11064;47.102;15.452;2023-06-05T13:01:24;15.80;99.90
21805;DHT22;11064;47.102;15.452;2023-06-05T13:03:54;15.70;99.90
21805;DHT22;11064;47.102;15.452;2023-06-05T13:06:20;15.60;99.90
21805;DHT22;11064;47.102;15.452;2023-06-05T13:08:46;15.60;99.90
21805;DHT22;11064;47.102;15.452;2023-06-05T13:11:13;15.70;99.90
21805;DHT22;11064;47.102;15.452;2023-06-05T13:13:39;15.60;99.90
21805;DHT22;11064;47.102;15.452;2023-06-05T13:16:05;15.70;99.90
21805;DHT22;11064;47.102;15.452;2023-06-05T13:18:33;15.80;99.90
21805;DHT22;11064;47.102;15.452;2023-06-05T13:20:59;16.10;99.90
21805;DHT22;11064;47.102;15.452;2023-06-05T13:23:25;16.20;99.90
21805;DHT22;11064;47.102;15.452;2023-06-05T13:25:52;16.30;99.90
21805;DHT22;11064;47.102;15.452;2023-06-05T13:28:18;16.40;99.90
21805;DHT22;11064;47.102;15.452;2023-06-05T13:30:44;16.20;99.90
21805;DHT22;11064;47.102;15.452;2023-06-05T13:33:10;16.00;99.90
21805;DHT22;11064;47.102;15.452;2023-06-05T13:35:36;16.00;99.90
21805;DHT22;11064;47.102;15.452;2023-06-05T13:38:02;15.90;99.90
21805;DHT22;11064;47.102;15.452;2023-06-05T13:40:28;16.00;99.90
21805;DHT22;11064;47.102;15.452;2023-06-05T13:42:56;15.90;99.90
21805;DHT22;11064;47.102;15.452;2023-06-05T13:45:22;15.80;99.90
21805;DHT22;11064;47.102;15.452;2023-06-05T13:47:48;15.90;99.90
21805;DHT22;11064;47.102;15.452;2023-06-05T13:50:14;15.70;99.90
21805;DHT22;11064;47.102;15.452;2023-06-05T13:52:40;15.80;99.90
21805;DHT22;11064;47.102;15.452;2023-06-05T13:55:06;15.70;99.90
21805;DHT22;11064;47.102;15.452;2023-06-05T13:57:32;15.60;99.90
21805;DHT22;11064;47.102;15.452;2023-06-05T13:59:58;15.70;99.90
21805;DHT22;11064;47.102;15.452;2023-06-05T14:02:24;15.80;99.90
21805;DHT22;11064;47.102;15.452;2023-06-05T14:04:49;15.80;99.90
21805;DHT22;11064;47.102;15.452;2023-06-05T14:07:15;15.90;99.90
21805;DHT22;11064;47.102;15.452;2023-06-05T14:09:41;15.90;99.90
21805;DHT22;11064;47.102;15.452;2023-06-05T14:12:07;15.80;99.90
21805;DHT22;11064;47.102;15.452;2023-06-05T14:14:35;15.70;99.90
21805;DHT22;11064;47.102;15.452;2023-06-05T14:17:01;15.80;99.90
21805;DHT22;11064;47.102;15.452;2023-06-05T14:19:27;15.70;99.90
21805;DHT22;11064;47.102;15.452;2023-06-05T14:21:53;15.70;99.90
21805;DHT22;11064;47.102;15.452;2023-06-05T14:24:19;15.80;99.90
21805;DHT22;11064;47.102;15.452;2023-06-05T14:26:45;15.70;99.90
21805;DHT22;11064;47.102;15.452;2023-06-05T14:29:11;15.90;99.90
21805;DHT22;11064;47.102;15.452;2023-06-05T14:31:37;15.90;99.90
21805;DHT22;11064;47.102;15.452;2023-06-05T14:34:03;15.80;99.90
21805;DHT22;11064;47.102;15.452;2023-06-05T14:36:29;15.60;99.90
21805;DHT22;11064;47.102;15.452;2023-06-05T14:38:55;15.50;99.90
21805;DHT22;11064;47.102;15.452;2023-06-05T14:41:21;15.50;99.90
21805;DHT22;11064;47.102;15.452;2023-06-05T14:43:46;15.50;99.90
21805;DHT22;11064;47.102;15.452;2023-06-05T14:46:12;15.50;99.90
21805;DHT22;11064;47.102;15.452;2023-06-05T14:48:39;15.50;99.90
21805;DHT22;11064;47.102;15.452;2023-06-05T14:51:07;15.50;99.90
21805;DHT22;11064;47.102;15.452;2023-06-05T14:53:33;15.40;99.90
21805;DHT22;11064;47.102;15.452;2023-06-05T14:55:59;15.50;99.90
21805;DHT22;11064;47.102;15.452;2023-06-05T14:58:25;15.40;99.90
21805;DHT22;11064;47.102;15.452;2023-06-05T15:00:50;15.40;99.90
21805;DHT22;11064;47.102;15.452;2023-06-05T15:03:16;15.20;99.90
21805;DHT22;11064;47.102;15.452;2023-06-05T15:05:43;15.10;99.90
21805;DHT22;11064;47.102;15.452;2023-06-05T15:08:09;15.00;99.90
21805;DHT22;11064;47.102;15.452;2023-06-05T15:10:36;15.20;99.90
21805;DHT22;11064;47.102;15.452;2023-06-05T15:13:01;15.30;99.90
21805;DHT22;11064;47.102;15.452;2023-06-05T15:15:28;15.40;99.90
21805;DHT22;11064;47.102;15.452;2023-06-05T15:17:54;15.50;99.90
21805;DHT22;11064;47.102;15.452;2023-06-05T15:20:20;15.60;99.90
21805;DHT22;11064;47.102;15.452;2023-06-05T15:22:47;15.60;99.90
21805;DHT22;11064;47.102;15.452;2023-06-05T15:25:12;15.60;99.90
21805;DHT22;11064;47.102;15.452;2023-06-05T15:27:38;15.60;99.90
21805;DHT22;11064;47.102;15.452;2023-06-05T15:30:05;15.60;99.90
21805;DHT22;11064;47.102;15.452;2023-06-05T15:32:32;15.80;99.90
21805;DHT22;11064;47.102;15.452;2023-06-05T15:34:57;15.80;99.90
21805;DHT22;11064;47.102;15.452;2023-06-05T15:37:24;15.80;99.90
21805;DHT22;11064;47.102;15.452;2023-06-05T15:39:51;15.70;99.90
21805;DHT22;11064;47.102;15.452;2023-06-05T15:42:26;15.60;99.90
21805;DHT22;11064;47.102;15.452;2023-06-05T15:44:54;15.60;99.90
21805;DHT22;11064;47.102;15.452;2023-06-05T15:47:30;15.50;99.90
21805;DHT22;11064;47.102;15.452;2023-06-05T15:49:56;15.50;99.90
21805;DHT22;11064;47.102;15.452;2023-06-05T15:52:22;15.50;99.90
21805;DHT22;11064;47.102;15.452;2023-06-05T15:54:48;15.40;99.90
21805;DHT22;11064;47.102;15.452;2023-06-05T15:57:13;15.30;99.90
21805;DHT22;11064;47.102;15.452;2023-06-05T15:59:39;15.20;99.90
21805;DHT22;11064;47.102;15.452;2023-06-05T16:02:06;15.20;99.90
21805;DHT22;11064;47.102;15.452;2023-06-05T16:04:31;15.20;99.90
21805;DHT22;11064;47.102;15.452;2023-06-05T16:06:59;15.20;99.90
21805;DHT22;11064;47.102;15.452;2023-06-05T16:09:25;15.20;99.90
21805;DHT22;11064;47.102;15.452;2023-06-05T16:11:50;15.30;99.90
21805;DHT22;11064;47.102;15.452;2023-06-05T16:14:16;15.10;99.90
21805;DHT22;11064;47.102;15.452;2023-06-05T16:16:42;14.90;99.90
21805;DHT22;11064;47.102;15.452;2023-06-05T16:19:08;15.00;99.90
21805;DHT22;11064;47.102;15.452;2023-06-05T16:21:34;15.10;99.90
21805;DHT22;11064;47.102;15.452;2023-06-05T16:24:00;15.10;99.90
21805;DHT22;11064;47.102;15.452;2023-06-05T16:26:26;15.30;99.90
21805;DHT22;11064;47.102;15.452;2023-06-05T16:28:52;15.50;99.90
21805;DHT22;11064;47.102;15.452;2023-06-05T16:31:18;15.80;99.90
21805;DHT22;11064;47.102;15.452;2023-06-05T16:33:43;15.90;99.90
21805;DHT22;11064;47.102;15.452;2023-06-05T16:36:09;15.90;99.90
21805;DHT22;11064;47.102;15.452;2023-06-05T16:38:36;15.80;99.90
21805;DHT22;11064;47.102;15.452;2023-06-05T16:41:02;15.80;99.90
21805;DHT22;11064;47.102;15.452;2023-06-05T16:43:27;15.80;99.90
21805;DHT22;11064;47.102;15.452;2023-06-05T16:45:53;15.50;99.90
21805;DHT22;11064;47.102;15.452;2023-06-05T16:48:22;15.40;99.90
21805;DHT22;11064;47.102;15.452;2023-06-05T16:50:48;15.30;99.90
21805;DHT22;11064;47.102;15.452;2023-06-05T16:53:18;15.10;99.90
21805;DHT22;11064;47.102;15.452;2023-06-05T16:55:45;15.10;99.90
21805;DHT22;11064;47.102;15.452;2023-06-05T16:58:10;15.00;99.90
21805;DHT22;11064;47.102;15.452;2023-06-05T17:00:36;15.00;99.90
21805;DHT22;11064;47.102;15.452;2023-06-05T17:03:02;14.90;99.90
21805;DHT22;11064;47.102;15.452;2023-06-05T17:05:28;15.00;99.90
21805;DHT22;11064;47.102;15.452;2023-06-05T17:07:54;15.00;99.90
21805;DHT22;11064;47.102;15.452;2023-06-05T17:10:20;15.00;99.90
21805;DHT22;11064;47.102;15.452;2023-06-05T17:12:45;15.00;99.90
21805;DHT22;11064;47.102;15.452;2023-06-05T17:15:12;14.90;99.90
21805;DHT22;11064;47.102;15.452;2023-06-05T17:17:41;15.00;99.90
21805;DHT22;11064;47.102;15.452;2023-06-05T17:20:10;15.00;99.90
21805;DHT22;11064;47.102;15.452;2023-06-05T17:22:36;15.10;99.90
21805;DHT22;11064;47.102;15.452;2023-06-05T17:25:02;15.00;99.90
21805;DHT22;11064;47.102;15.452;2023-06-05T17:27:29;15.10;99.90
21805;DHT22;11064;47.102;15.452;2023-06-05T17:29:56;15.20;99.90
21805;DHT22;11064;47.102;15.452;2023-06-05T17:32:22;15.40;99.90
21805;DHT22;11064;47.102;15.452;2023-06-05T17:34:48;15.50;99.90
21805;DHT22;11064;47.102;15.452;2023-06-05T17:37:14;15.70;99.90
21805;DHT22;11064;47.102;15.452;2023-06-05T17:39:40;16.00;99.90
21805;DHT22;11064;47.102;15.452;2023-06-05T17:42:06;16.10;99.90
21805;DHT22;11064;47.102;15.452;2023-06-05T17:44:33;16.20;99.90
21805;DHT22;11064;47.102;15.452;2023-06-05T17:46:59;16.10;99.90
21805;DHT22;11064;47.102;15.452;2023-06-05T17:49:25;16.10;99.90
21805;DHT22;11064;47.102;15.452;2023-06-05T17:51:53;16.00;99.90
21805;DHT22;11064;47.102;15.452;2023-06-05T17:54:19;15.90;99.90
21805;DHT22;11064;47.102;15.452;2023-06-05T17:56:45;15.80;99.90
21805;DHT22;11064;47.102;15.452;2023-06-05T17:59:11;15.70;99.90
21805;DHT22;11064;47.102;15.452;2023-06-05T18:01:38;15.70;99.90
21805;DHT22;11064;47.102;15.452;2023-06-05T18:04:04;15.60;99.90
21805;DHT22;11064;47.102;15.452;2023-06-05T18:06:30;15.50;99.90
21805;DHT22;11064;47.102;15.452;2023-06-05T18:08:56;15.50;99.90
21805;DHT22;11064;47.102;15.452;2023-06-05T18:11:26;15.40;99.90
21805;DHT22;11064;47.102;15.452;2023-06-05T18:13:53;15.30;99.90
21805;DHT22;11064;47.102;15.452;2023-06-05T18:16:20;15.20;99.90
21805;DHT22;11064;47.102;15.452;2023-06-05T18:18:46;15.10;99.90
21805;DHT22;11064;47.102;15.452;2023-06-05T18:21:11;15.10;99.90
21805;DHT22;11064;47.102;15.452;2023-06-05T18:23:41;15.00;99.90
21805;DHT22;11064;47.102;15.452;2023-06-05T18:26:10;14.90;99.90
21805;DHT22;11064;47.102;15.452;2023-06-05T18:28:36;14.90;99.90
21805;DHT22;11064;47.102;15.452;2023-06-05T18:31:02;14.80;99.90
21805;DHT22;11064;47.102;15.452;2023-06-05T18:33:28;14.70;99.90
21805;DHT22;11064;47.102;15.452;2023-06-05T18:35:56;14.70;99.90
21805;DHT22;11064;47.102;15.452;2023-06-05T18:38:22;14.60;99.90
21805;DHT22;11064;47.102;15.452;2023-06-05T18:40:49;14.60;99.90
21805;DHT22;11064;47.102;15.452;2023-06-05T18:43:15;14.50;99.90
21805;DHT22;11064;47.102;15.452;2023-06-05T18:45:42;14.50;99.90
21805;DHT22;11064;47.102;15.452;2023-06-05T18:48:08;14.60;99.90
21805;DHT22;11064;47.102;15.452;2023-06-05T18:50:34;14.50;99.90
21805;DHT22;11064;47.102;15.452;2023-06-05T18:53:00;14.50;99.90
21805;DHT22;11064;47.102;15.452;2023-06-05T18:55:26;14.50;99.90
21805;DHT22;11064;47.102;15.452;2023-06-05T18:57:52;14.50;99.90
21805;DHT22;11064;47.102;15.452;2023-06-05T19:00:18;14.50;99.90
21805;DHT22;11064;47.102;15.452;2023-06-05T19:02:43;14.50;99.90
21805;DHT22;11064;47.102;15.452;2023-06-05T19:05:09;14.50;99.90
21805;DHT22;11064;47.102;15.452;2023-06-05T19:07:35;14.50;99.90
21805;DHT22;11064;47.102;15.452;2023-06-05T19:10:05;14.50;99.90
21805;DHT22;11064;47.102;15.452;2023-06-05T19:12:35;14.50;99.90
21805;DHT22;11064;47.102;15.452;2023-06-05T19:15:03;14.50;99.90
21805;DHT22;11064;47.102;15.452;2023-06-05T19:17:29;14.50;99.90
21805;DHT22;11064;47.102;15.452;2023-06-05T19:19:55;14.50;99.90
21805;DHT22;11064;47.102;15.452;2023-06-05T19:22:21;14.50;99.90
21805;DHT22;11064;47.102;15.452;2023-06-05T19:24:47;14.50;99.90
21805;DHT22;11064;47.102;15.452;2023-06-05T19:27:13;14.50;99.90
21805;DHT22;11064;47.102;15.452;2023-06-05T19:29:39;14.50;99.90
21805;DHT22;11064;47.102;15.452;2023-06-05T19:32:05;14.50;99.90
21805;DHT22;11064;47.102;15.452;2023-06-05T19:34:31;14.50;99.90
21805;DHT22;11064;47.102;15.452;2023-06-05T19:36:57;14.50;99.90
21805;DHT22;11064;47.102;15.452;2023-06-05T19:39:23;14.50;99.90
21805;DHT22;11064;47.102;15.452;2023-06-05T19:41:50;14.50;99.90
21805;DHT22;11064;47.102;15.452;2023-06-05T19:44:16;14.50;99.90
21805;DHT22;11064;47.102;15.452;2023-06-05T19:46:42;14.50;99.90